Time;durP1;ratioP1;P1;durP2;ratioP2;P2;SDS_P1;SDS_P2;PMS_P1;PMS_P2;Temp;Humidity;BMP_temperature;BMP_pressure;BME280_temperature;BME280_humidity;BME280_pressure;Samples;Min_cycle;Max_cycle;Signal;HPM_P1;HPM_P2
2022/12/11 00:01:43;;;;;;;12.30;7.93;;;;;;;18.41;36.30;101050.09;5021706;28;20040;-67
2022/12/11 00:04:09;;;;;;;14.13;9.23;;;;;;;18.43;36.28;101055.25;5022452;28;20033;-67
2022/12/11 00:06:34;;;;;;;14.02;8.63;;;;;;;18.41;36.28;101052.72;5022453;28;20045;-67
2022/12/11 00:09:00;;;;;;;14.20;8.93;;;;;;;18.40;36.25;101047.56;5022425;28;20064;-69
2022/12/11 00:11:26;;;;;;;13.93;8.90;;;;;;;18.39;36.01;101052.03;5021742;28;20120;-68
2022/12/11 00:13:51;;;;;;;16.60;9.68;;;;;;;18.41;36.00;101049.25;5022003;28;20036;-69
2022/12/11 00:16:16;;;;;;;12.80;8.45;;;;;;;18.40;36.25;101050.22;5021711;28;20029;-66
2022/12/11 00:18:43;;;;;;;12.80;8.18;;;;;;;18.39;36.36;101051.16;5022203;28;20037;-68
2022/12/11 00:21:13;;;;;;;16.38;10.25;;;;;;;18.38;36.15;101047.69;5022022;28;20041;-67
2022/12/11 00:23:39;;;;;;;13.05;8.13;;;;;;;18.38;36.17;101049.50;5021850;28;20034;-67
2022/12/11 00:26:11;;;;;;;13.80;8.52;;;;;;;18.35;36.40;101042.66;5022078;28;20087;-68
2022/12/11 00:28:37;;;;;;;12.98;8.32;;;;;;;18.31;36.31;101044.72;5021452;28;20088;-67
2022/12/11 00:31:08;;;;;;;12.85;8.57;;;;;;;18.33;36.41;101049.03;5022403;28;20041;-68
2022/12/11 00:33:33;;;;;;;13.65;8.10;;;;;;;18.31;36.20;101044.72;5020713;28;20029;-68
2022/12/11 00:35:59;;;;;;;13.65;8.43;;;;;;;18.28;36.36;101041.47;5021510;28;20054;-68
2022/12/11 00:38:24;;;;;;;13.02;8.20;;;;;;;18.29;36.33;101046.63;5021173;28;20466;-69
2022/12/11 00:40:50;;;;;;;14.55;9.18;;;;;;;18.27;36.09;101047.72;5020598;28;20038;-69
2022/12/11 00:43:16;;;;;;;14.65;8.88;;;;;;;18.27;36.23;101042.44;5021410;28;20025;-70
2022/12/11 00:45:43;;;;;;;14.43;9.00;;;;;;;18.23;36.09;101046.25;5004005;28;20500;-68
2022/12/11 00:48:09;;;;;;;12.57;8.65;;;;;;;18.23;36.10;101043.63;5021565;28;20143;-68
2022/12/11 00:50:35;;;;;;;13.73;7.97;;;;;;;18.22;36.30;101039.31;5021413;28;20136;-67
2022/12/11 00:53:02;;;;;;;13.55;8.45;;;;;;;18.20;36.26;101035.94;5021344;28;20068;-67
2022/12/11 00:55:28;;;;;;;13.27;8.75;;;;;;;18.17;36.08;101036.22;5020377;28;20497;-68
2022/12/11 00:57:54;;;;;;;14.25;8.48;;;;;;;18.21;35.94;101042.91;5021496;28;20025;-69
2022/12/11 01:00:21;;;;;;;13.90;8.65;;;;;;;18.20;36.17;101035.94;5021364;28;20037;-68
2022/12/11 01:02:46;;;;;;;12.82;8.20;;;;;;;18.16;36.14;101034.53;5020131;28;20061;-68
2022/12/11 01:05:12;;;;;;;13.38;8.35;;;;;;;18.18;35.90;101040.50;5021021;28;20071;-69
2022/12/11 01:07:37;;;;;;;14.02;8.40;;;;;;;18.17;35.92;101037.03;5021172;28;20516;-68
2022/12/11 01:12:47;;;;;;;12.45;8.63;;;;;;;18.13;35.74;101039.09;5020821;28;20080;-68
2022/12/11 01:15:12;;;;;;;13.23;8.20;;;;;;;18.14;35.63;101037.28;5020811;28;20041;-69
2022/12/11 01:17:37;;;;;;;13.85;8.40;;;;;;;18.10;35.90;101031.41;5020771;28;20040;-68
2022/12/11 01:20:04;;;;;;;13.73;8.00;;;;;;;18.09;36.14;101032.38;5021014;28;20123;-69
2022/12/11 01:22:30;;;;;;;11.27;7.88;;;;;;;18.08;36.03;101035.94;5020424;28;20029;-68
2022/12/11 01:24:55;;;;;;;11.63;7.47;;;;;;;18.09;35.93;101045.56;5020748;28;20033;-67
2022/12/11 01:27:21;;;;;;;11.75;7.93;;;;;;;18.07;35.85;101046.63;5020814;28;20757;-66
2022/12/11 01:29:46;;;;;;;12.10;8.15;;;;;;;18.07;35.98;101044.84;5017969;28;20048;-69
2022/12/11 01:32:11;;;;;;;11.43;8.00;;;;;;;18.06;35.76;101044.97;5020523;28;20034;-68
2022/12/11 01:34:37;;;;;;;12.98;8.05;;;;;;;18.04;35.95;101042.44;5020144;28;20029;-68
2022/12/11 01:37:03;;;;;;;13.05;7.45;;;;;;;18.02;36.10;101039.06;5020416;28;20050;-67
2022/12/11 01:39:29;;;;;;;11.68;7.55;;;;;;;18.04;35.73;101041.56;5020623;28;20116;-69
2022/12/11 01:41:58;;;;;;;12.23;8.10;;;;;;;18.01;35.99;101047.94;5020071;28;20136;-68
2022/12/11 01:44:23;;;;;;;10.75;7.70;;;;;;;18.02;35.83;101039.06;5020784;28;20041;-69
2022/12/11 01:46:50;;;;;;;10.40;7.10;;;;;;;18.00;35.75;101035.72;5019530;28;20469;-68
2022/12/11 01:49:17;;;;;;;11.48;8.10;;;;;;;18.00;35.78;101034.88;5020597;28;20118;-67
2022/12/11 01:51:57;;;;;;;10.02;7.15;;;;;;;17.97;35.72;101025.41;5019605;28;20057;-67
2022/12/11 01:54:26;;;;;;;12.13;7.65;;;;;;;17.95;36.03;101028.16;5020030;28;20021;-68
2022/12/11 01:56:54;;;;;;;10.80;7.28;;;;;;;17.98;36.01;101029.72;5025574;28;20462;-69
2022/12/11 01:59:23;;;;;;;11.68;7.60;;;;;;;17.94;35.80;101023.84;5026772;28;20033;-70
2022/12/11 02:01:56;;;;;;;10.52;7.28;;;;;;;17.96;35.58;101031.66;5026285;28;20226;-69
2022/12/11 02:04:22;;;;;;;12.30;7.50;;;;;;;17.92;35.61;101020.47;5027619;28;20045;-68
2022/12/11 02:06:49;;;;;;;11.43;8.00;;;;;;;17.94;35.46;101023.00;5026376;28;20037;-68
2022/12/11 02:09:22;;;;;;;10.95;7.30;;;;;;;17.93;35.81;101030.09;5027309;28;20029;-68
2022/12/11 02:11:59;;;;;;;12.50;7.65;;;;;;;17.93;35.92;101026.63;5026990;28;20484;-69
2022/12/11 02:14:32;;;;;;;11.10;7.60;;;;;;;17.92;35.61;101028.38;5027204;28;20033;-68
2022/12/11 02:17:05;;;;;;;11.80;7.55;;;;;;;17.89;35.83;101019.88;5027301;28;20532;-69
2022/12/11 02:20:02;;;;;;;13.75;7.38;;;;;;;17.91;36.26;101026.72;5026584;28;20065;-67
2022/12/11 02:22:39;;;;;;;10.02;6.70;;;;;;;17.90;36.19;101027.69;5026957;28;20029;-68
2022/12/11 02:25:16;;;;;;;11.00;7.07;;;;;;;17.89;36.42;101031.25;5026632;28;20033;-69
2022/12/11 02:27:52;;;;;;;12.60;7.45;;;;;;;17.84;36.31;101022.84;5025954;28;20422;-68
2022/12/11 02:30:17;;;;;;;10.93;7.00;;;;;;;17.89;36.32;101027.78;5027278;28;20032;-69
2022/12/11 02:32:55;;;;;;;11.65;6.93;;;;;;;17.85;36.20;101015.75;5027119;28;20025;-68
2022/12/11 02:35:55;;;;;;;11.82;6.65;;;;;;;17.83;36.00;101015.91;5026739;28;20053;-68
2022/12/11 02:38:38;;;;;;;9.27;6.07;;;;;;;17.81;36.10;101009.06;4982352;28;20060;-67
2022/12/11 02:41:06;;;;;;;10.98;6.78;;;;;;;17.82;35.86;101019.50;5026603;28;20049;-68
2022/12/11 02:43:33;;;;;;;11.05;6.85;;;;;;;17.82;35.97;101022.13;5026810;28;20034;-68
2022/12/11 02:45:59;;;;;;;9.68;6.00;;;;;;;17.80;35.98;101018.78;5026774;28;20492;-67
2022/12/11 02:48:25;;;;;;;10.25;6.75;;;;;;;17.77;36.08;101014.56;5026299;28;20509;-68
2022/12/11 02:50:54;;;;;;;10.35;6.90;;;;;;;17.79;36.04;101016.25;5026350;28;20037;-66
2022/12/11 02:53:27;;;;;;;10.10;6.95;;;;;;;17.77;36.10;101021.66;5026691;28;20145;-67
2022/12/11 02:56:00;;;;;;;9.20;6.38;;;;;;;17.80;35.73;101023.19;5026681;28;20037;-68
2022/12/11 02:58:31;;;;;;;8.98;5.85;;;;;;;17.77;35.90;101024.28;5025716;28;20033;-69
2022/12/11 03:00:57;;;;;;;9.82;6.25;;;;;;;17.77;35.97;101019.84;5027127;28;20625;-69
2022/12/11 03:03:22;;;;;;;9.82;6.10;;;;;;;17.76;35.77;101023.44;5026604;28;20029;-68
2022/12/11 03:05:47;;;;;;;9.35;5.68;;;;;;;17.76;35.77;101020.78;5026207;28;20528;-69
2022/12/11 03:08:16;;;;;;;11.23;6.50;;;;;;;17.75;35.73;101013.00;5022256;28;20037;-68
2022/12/11 03:10:41;;;;;;;9.43;5.90;;;;;;;17.74;35.60;101013.97;5023834;28;20037;-69
2022/12/11 03:13:07;;;;;;;8.82;5.90;;;;;;;17.73;35.80;101009.66;5023288;28;20032;-68
2022/12/11 03:15:50;;;;;;;10.25;6.20;;;;;;;17.73;35.94;101012.28;5023341;28;20462;-69
2022/12/11 03:18:34;;;;;;;8.32;5.55;;;;;;;17.72;35.83;101003.56;5023287;28;20120;-69
2022/12/11 03:21:14;;;;;;;10.85;5.47;;;;;;;17.71;35.68;101004.50;5023544;28;20079;-69
2022/12/11 03:23:54;;;;;;;9.48;5.65;;;;;;;17.72;35.49;101002.69;5023190;28;20048;-69
2022/12/11 03:26:21;;;;;;;8.73;5.82;;;;;;;17.70;35.54;101000.19;5015494;28;20083;-68
2022/12/11 03:28:57;;;;;;;7.72;5.50;;;;;;;17.70;35.40;100994.91;5023209;28;20057;-68
2022/12/11 03:31:30;;;;;;;9.45;5.68;;;;;;;17.69;35.47;101001.16;5022821;28;20120;-68
2022/12/11 03:34:02;;;;;;;7.18;4.75;;;;;;;17.67;35.87;100994.31;5023709;28;20033;-68
2022/12/11 03:36:35;;;;;;;8.68;5.35;;;;;;;17.66;35.73;100988.22;5023075;28;20091;-66
2022/12/11 03:39:14;;;;;;;7.93;4.97;;;;;;;17.68;35.95;100998.63;5022958;28;20437;-69
2022/12/11 03:41:41;;;;;;;8.43;5.25;;;;;;;17.67;35.93;100995.13;5023339;28;20045;-69
2022/12/11 03:44:07;;;;;;;9.77;5.05;;;;;;;17.65;35.80;100991.78;5023037;28;20095;-68
2022/12/11 03:46:37;;;;;;;9.30;4.90;;;;;;;17.64;35.85;100979.59;5022739;28;20571;-69
2022/12/11 03:49:07;;;;;;;7.88;4.80;;;;;;;17.66;36.19;100995.28;5022664;28;20071;-69
2022/12/11 03:51:34;;;;;;;7.75;4.95;;;;;;;17.66;35.75;100979.47;5022460;28;20029;-68
2022/12/11 03:54:00;;;;;;;6.85;4.57;;;;;;;17.66;36.12;100982.09;5022724;28;20063;-69
2022/12/11 03:56:28;;;;;;;7.70;4.68;;;;;;;17.63;36.03;100970.00;5021802;28;20044;-68
2022/12/11 03:58:53;;;;;;;8.75;4.70;;;;;;;17.65;36.36;100967.25;5022135;28;20033;-68
2022/12/11 04:01:19;;;;;;;9.68;5.18;;;;;;;17.63;36.10;100961.25;5022660;28;20412;-69
2022/12/11 04:03:44;;;;;;;8.60;4.85;;;;;;;17.64;36.43;100969.03;5021970;28;20735;-69
2022/12/11 04:06:09;;;;;;;7.80;4.50;;;;;;;17.63;36.03;100964.72;5021694;28;20083;-68
2022/12/11 04:08:35;;;;;;;11.18;4.93;;;;;;;17.64;36.36;100968.19;5022009;28;20026;-68
2022/12/11 04:15:00;;;;;;;7.95;4.50;;;;;;;17.62;36.61;100967.47;5022152;28;20071;-69
2022/12/11 04:16:31;;;;;;;7.20;4.25;;;;;;;17.63;36.36;100974.44;5021680;28;20041;-68
2022/12/11 04:24:34;;;;;;;7.37;3.97;;;;;;;17.61;36.14;100966.66;5021798;28;20499;-69
2022/12/11 04:27:00;;;;;;;8.25;4.20;;;;;;;17.63;36.16;100971.78;5022151;28;20033;-69
2022/12/11 04:29:25;;;;;;;6.57;4.13;;;;;;;17.63;36.23;100967.34;5021973;28;20048;-66
2022/12/11 04:31:50;;;;;;;7.30;4.18;;;;;;;17.64;35.89;100973.47;5022131;28;20033;-66
2022/12/11 04:34:16;;;;;;;7.72;3.97;;;;;;;17.62;36.02;100970.09;5021916;28;20044;-68
2022/12/11 04:36:42;;;;;;;6.03;3.75;;;;;;;17.62;35.97;100956.94;5021804;28;20053;-69
2022/12/11 04:39:07;;;;;;;7.00;3.90;;;;;;;17.62;35.91;100965.66;5021920;28;20041;-68
2022/12/11 04:41:32;;;;;;;6.90;4.22;;;;;;;17.59;35.92;100964.13;5021570;28;20382;-66
2022/12/11 04:43:58;;;;;;;5.78;3.78;;;;;;;17.58;35.77;100962.44;5021424;28;20481;-67
2022/12/11 04:46:24;;;;;;;7.15;3.28;;;;;;;17.59;36.12;100961.50;5021782;28;20029;-67
2022/12/11 04:48:51;;;;;;;6.28;3.72;;;;;;;17.59;35.71;100956.22;5021302;28;20048;-67
2022/12/11 04:51:17;;;;;;;6.60;3.90;;;;;;;17.61;35.68;100966.66;5021541;28;20080;-67
2022/12/11 04:53:43;;;;;;;7.38;4.00;;;;;;;17.59;35.69;100955.34;5020924;28;20081;-68
2022/12/11 04:56:12;;;;;;;7.00;3.90;;;;;;;17.60;35.77;100959.69;5020074;28;20489;-68
2022/12/11 04:58:38;;;;;;;6.40;3.67;;;;;;;17.57;35.77;100955.47;5021640;28;20835;-69
2022/12/11 05:01:15;;;;;;;6.75;3.72;;;;;;;17.61;35.98;100956.09;5021929;28;20037;-66
2022/12/11 05:03:41;;;;;;;6.55;3.80;;;;;;;17.62;35.78;100960.41;5021177;28;20902;-68
2022/12/11 05:06:08;;;;;;;6.93;3.80;;;;;;;17.59;35.69;100953.59;5020840;28;20549;-68
2022/12/11 05:08:34;;;;;;;7.03;3.90;;;;;;;17.62;35.75;100949.84;5020995;28;20377;-69
2022/12/11 05:11:02;;;;;;;6.18;3.90;;;;;;;17.59;35.81;100947.47;5020660;28;20036;-67
2022/12/11 05:13:28;;;;;;;6.50;3.58;;;;;;;17.62;35.75;100960.41;5021283;28;20114;-68
2022/12/11 05:15:54;;;;;;;6.50;3.83;;;;;;;17.62;35.54;100956.94;5020282;28;20033;-68
2022/12/11 05:18:20;;;;;;;7.35;3.42;;;;;;;17.61;35.56;100949.97;5020383;28;20497;-68
2022/12/11 05:20:57;;;;;;;5.70;3.30;;;;;;;17.59;35.69;100945.69;5021306;28;20413;-68
2022/12/11 05:23:23;;;;;;;5.88;3.85;;;;;;;17.59;35.34;100943.03;5021214;28;20044;-68
2022/12/11 05:25:56;;;;;;;5.32;3.60;;;;;;;17.60;35.69;100949.16;5020794;28;20947;-68
2022/12/11 05:28:25;;;;;;;6.13;3.60;;;;;;;17.62;35.34;100949.03;5021023;28;20036;-68
2022/12/11 05:30:59;;;;;;;5.38;3.35;;;;;;;17.61;35.39;100939.44;5019060;28;20041;-68
2022/12/11 05:33:24;;;;;;;6.03;3.80;;;;;;;17.63;35.72;100937.53;5021251;28;20144;-68
2022/12/11 05:35:50;;;;;;;4.97;3.10;;;;;;;17.62;35.84;100934.03;5020406;28;20565;-68
2022/12/11 05:38:15;;;;;;;6.05;3.35;;;;;;;17.64;35.89;100937.41;5020282;28;20474;-67
2022/12/11 05:40:40;;;;;;;5.30;3.22;;;;;;;17.65;36.11;100940.88;5021211;28;20044;-68
2022/12/11 05:43:06;;;;;;;5.32;3.20;;;;;;;17.70;36.35;100941.34;5020834;28;20056;-68
2022/12/11 05:45:31;;;;;;;4.82;2.70;;;;;;;17.74;36.35;100945.44;5019926;28;20044;-67
2022/12/11 05:47:56;;;;;;;5.03;2.83;;;;;;;17.79;36.30;100947.72;5019266;28;20040;-68
2022/12/11 05:50:22;;;;;;;5.22;2.53;;;;;;;17.81;35.91;100948.44;5020400;28;20545;-68
2022/12/11 05:52:47;;;;;;;4.03;2.15;;;;;;;17.87;35.95;100951.41;5020039;28;20468;-69
2022/12/11 05:55:13;;;;;;;4.18;2.33;;;;;;;17.92;35.88;100949.28;5019198;28;20026;-68
2022/12/11 05:57:38;;;;;;;4.65;2.47;;;;;;;17.97;36.41;100954.19;5021341;28;20116;-69
2022/12/11 06:00:04;;;;;;;4.63;2.38;;;;;;;18.04;36.24;100957.19;5021101;28;20045;-68
2022/12/11 06:02:30;;;;;;;5.35;2.80;;;;;;;18.05;35.97;100954.44;5020521;28;20038;-69
2022/12/11 06:04:55;;;;;;;4.00;2.28;;;;;;;18.10;36.51;100954.94;5020648;28;20033;-69
2022/12/11 06:07:20;;;;;;;3.85;2.10;;;;;;;18.14;36.27;100960.78;5020797;28;20038;-68
2022/12/11 06:09:45;;;;;;;4.68;1.90;;;;;;;18.15;36.43;100948.44;5020529;28;20029;-68
2022/12/11 06:12:11;;;;;;;4.97;2.42;;;;;;;18.17;36.46;100943.91;5020908;28;20358;-68
2022/12/11 06:14:36;;;;;;;4.75;2.45;;;;;;;18.22;36.51;100952.28;5020655;28;20034;-67
2022/12/11 06:17:01;;;;;;;5.85;2.30;;;;;;;18.20;36.71;100944.47;5020658;28;20454;-68
2022/12/11 06:19:27;;;;;;;3.97;1.95;;;;;;;18.23;36.63;100946.88;5020159;28;20088;-67
2022/12/11 06:21:52;;;;;;;4.32;1.95;;;;;;;18.25;36.96;100950.22;5020733;28;20034;-69
2022/12/11 06:24:17;;;;;;;5.65;2.28;;;;;;;18.26;36.68;100946.63;5019750;28;20029;-68
2022/12/11 06:26:43;;;;;;;5.95;2.30;;;;;;;18.29;37.20;100949.03;5020783;28;20038;-67
2022/12/11 06:29:08;;;;;;;6.97;2.63;;;;;;;18.28;36.90;100944.69;5011412;28;20036;-68
2022/12/11 06:31:33;;;;;;;4.65;2.22;;;;;;;18.31;37.14;100946.25;5020474;28;20561;-69
2022/12/11 06:33:58;;;;;;;4.68;2.10;;;;;;;18.30;37.10;100944.56;5020336;28;20048;-68
2022/12/11 06:36:24;;;;;;;8.20;2.72;;;;;;;18.34;36.93;100947.78;5019812;28;20042;-68
2022/12/11 06:38:49;;;;;;;5.05;2.40;;;;;;;18.32;37.28;100947.91;5020294;28;20501;-67
2022/12/11 06:41:15;;;;;;;5.60;2.42;;;;;;;18.32;37.34;100950.56;5021577;28;20033;-68
2022/12/11 06:43:41;;;;;;;4.75;2.13;;;;;;;18.30;37.13;100948.03;5024091;28;20030;-67
2022/12/11 06:46:10;;;;;;;4.20;1.88;;;;;;;18.33;37.03;100944.34;5023188;28;20056;-69
2022/12/11 06:48:36;;;;;;;5.63;2.10;;;;;;;18.34;37.41;100943.38;5022610;28;20048;-68
2022/12/11 06:51:07;;;;;;;5.88;2.40;;;;;;;18.36;37.08;100940.59;5023817;28;20130;-68
2022/12/11 06:53:32;;;;;;;4.78;2.28;;;;;;;18.38;37.45;100938.69;5023929;28;20033;-68
2022/12/11 06:56:02;;;;;;;6.10;1.90;;;;;;;18.37;37.55;100932.56;5022673;28;20083;-69
2022/12/11 06:58:28;;;;;;;7.00;2.40;;;;;;;18.40;37.38;100932.31;5023619;28;20041;-69
2022/12/11 07:00:53;;;;;;;6.28;2.40;;;;;;;18.40;37.34;100932.31;5023173;28;20041;-69
2022/12/11 07:03:18;;;;;;;5.15;2.08;;;;;;;18.41;37.38;100938.44;5039317;28;20061;-68
2022/12/11 07:05:43;;;;;;;5.18;2.05;;;;;;;18.43;37.51;100949.69;5023520;28;20034;-69
2022/12/11 07:08:09;;;;;;;4.40;1.90;;;;;;;18.41;37.45;100949.81;5021632;28;20044;-69
2022/12/11 07:10:34;;;;;;;6.53;2.05;;;;;;;18.39;37.53;100945.63;5023516;28;20025;-67
2022/12/11 07:12:59;;;;;;;4.75;2.00;;;;;;;18.43;37.65;100955.81;5024053;28;20029;-69
2022/12/11 07:15:24;;;;;;;6.70;2.38;;;;;;;18.36;37.34;100941.44;5023097;28;20075;-67
2022/12/11 07:17:50;;;;;;;4.35;2.28;;;;;;;18.43;37.61;100950.53;5023696;28;20073;-69
2022/12/11 07:20:16;;;;;;;6.70;2.35;;;;;;;18.41;37.64;100952.47;5023543;28;20386;-68
2022/12/11 07:22:41;;;;;;;6.70;2.10;;;;;;;18.42;37.45;100956.78;5038875;28;20649;-69
2022/12/11 07:25:07;;;;;;;5.97;2.05;;;;;;;18.43;37.73;100968.16;5022511;28;20034;-70
2022/12/11 07:27:32;;;;;;;4.40;2.42;;;;;;;18.41;37.71;100963.00;5023514;28;20121;-71
2022/12/11 07:29:57;;;;;;;5.32;2.30;;;;;;;18.43;37.69;100966.34;5022589;28;20037;-69
2022/12/11 07:32:23;;;;;;;5.65;2.00;;;;;;;18.45;37.47;100971.50;5023018;28;20030;-69
2022/12/11 07:34:48;;;;;;;6.80;2.45;;;;;;;18.44;37.85;100969.84;5022694;28;20029;-69
2022/12/11 07:37:14;;;;;;;4.88;2.25;;;;;;;18.48;37.85;100966.00;5022473;28;20046;-70
2022/12/11 07:39:39;;;;;;;5.68;2.30;;;;;;;18.47;37.92;100964.34;5023014;28;20174;-69
2022/12/11 07:42:04;;;;;;;4.25;1.88;;;;;;;18.47;37.58;100964.34;5023221;28;20065;-68
2022/12/11 07:44:29;;;;;;;4.40;1.85;;;;;;;18.51;37.55;100975.47;5022101;28;20162;-68
2022/12/11 07:46:55;;;;;;;5.75;2.08;;;;;;;18.48;37.69;100958.06;5023086;28;20371;-67
2022/12/11 07:49:20;;;;;;;5.28;2.30;;;;;;;18.52;37.64;100963.94;5022887;28;20036;-68
2022/12/11 07:51:45;;;;;;;6.78;2.58;;;;;;;18.46;37.70;100963.47;5022105;28;20480;-69
2022/12/11 07:54:15;;;;;;;4.38;2.00;;;;;;;18.51;37.73;100963.09;5022146;28;20030;-68
2022/12/11 07:56:42;;;;;;;7.32;2.15;;;;;;;18.46;37.72;100957.38;5022874;28;20075;-69
2022/12/11 07:59:08;;;;;;;6.38;2.20;;;;;;;18.51;37.65;100968.38;5022533;28;20170;-69
2022/12/11 08:01:35;;;;;;;4.90;2.15;;;;;;;18.49;37.69;100963.22;5022765;28;20477;-69
2022/12/11 08:04:02;;;;;;;5.53;2.40;;;;;;;18.55;37.75;100961.06;5022838;28;20033;-70
2022/12/11 08:06:30;;;;;;;4.88;2.17;;;;;;;18.54;37.68;100959.41;5022336;28;20400;-68
2022/12/11 08:08:57;;;;;;;5.47;2.03;;;;;;;18.53;37.64;100961.16;5022706;28;20056;-70
2022/12/11 08:11:22;;;;;;;6.35;2.72;;;;;;;18.55;37.83;100966.31;5021869;28;20036;-68
2022/12/11 08:13:48;;;;;;;5.75;2.25;;;;;;;18.55;37.57;100972.47;5022159;28;20033;-69
2022/12/11 08:16:14;;;;;;;7.25;2.72;;;;;;;18.54;37.90;100965.50;5020191;28;20476;-69
2022/12/11 08:18:41;;;;;;;5.60;2.28;;;;;;;18.56;38.06;100960.94;5022491;28;20393;-67
2022/12/11 08:21:13;;;;;;;7.75;2.65;;;;;;;18.54;37.77;100956.75;5020299;28;20433;-71
2022/12/11 08:23:38;;;;;;;6.50;2.63;;;;;;;18.56;38.08;100962.75;5022140;28;20117;-70
2022/12/11 08:26:06;;;;;;;5.03;2.22;;;;;;;18.53;37.86;100960.34;5021910;28;20060;-69
2022/12/11 08:28:32;;;;;;;5.80;2.55;;;;;;;18.56;38.06;100975.94;5022479;28;20026;-68
2022/12/11 08:30:57;;;;;;;4.88;2.63;;;;;;;18.58;38.31;100963.44;5021532;28;20377;-68
2022/12/11 08:33:23;;;;;;;8.43;2.92;;;;;;;18.57;38.35;100967.88;5022358;28;20132;-67
2022/12/11 08:35:48;;;;;;;5.95;2.70;;;;;;;18.60;38.29;100961.53;5021385;28;20053;-68
2022/12/11 08:38:14;;;;;;;6.70;2.90;;;;;;;18.62;38.56;100967.53;5022210;28;20112;-67
2022/12/11 08:40:39;;;;;;;5.78;2.22;;;;;;;18.63;38.27;100975.31;5022165;28;20098;-68
2022/12/11 08:43:05;;;;;;;7.10;2.65;;;;;;;18.63;38.23;100970.03;5022245;28;20052;-69
2022/12/11 08:45:30;;;;;;;6.43;2.60;;;;;;;18.62;38.41;100965.72;5021682;28;20083;-69
2022/12/11 08:47:58;;;;;;;7.03;2.70;;;;;;;18.61;38.16;100957.91;5021860;28;20033;-70
2022/12/11 08:50:23;;;;;;;6.32;2.78;;;;;;;18.63;38.46;100958.66;5021774;28;20061;-68
2022/12/11 08:52:48;;;;;;;4.70;2.50;;;;;;;18.65;38.49;100962.00;5018797;28;20529;-68
2022/12/11 08:55:14;;;;;;;6.35;2.70;;;;;;;18.66;38.22;100955.75;5013359;28;20034;-70
2022/12/11 08:57:39;;;;;;;10.57;3.13;;;;;;;18.68;38.58;100962.56;5016037;28;20043;-68
2022/12/11 09:00:07;;;;;;;7.03;2.47;;;;;;;18.68;38.53;100956.47;5015852;28;20091;-71
2022/12/11 09:02:33;;;;;;;6.25;2.85;;;;;;;18.67;38.30;100963.56;5016060;28;20037;-73
2022/12/11 09:04:58;;;;;;;11.05;2.92;;;;;;;18.66;38.42;100955.75;5011921;28;20033;-69
2022/12/11 09:07:24;;;;;;;6.90;2.90;;;;;;;18.71;38.60;100958.84;5013656;28;20085;-73
2022/12/11 09:09:49;;;;;;;8.25;2.97;;;;;;;18.72;38.60;100959.69;5014871;28;20046;-71
2022/12/11 09:12:15;;;;;;;6.90;2.70;;;;;;;18.70;38.57;100953.69;5013382;28;20033;-70
2022/12/11 09:14:40;;;;;;;8.75;2.90;;;;;;;18.74;38.28;100961.25;5014180;28;20115;-65
2022/12/11 09:17:05;;;;;;;7.03;2.75;;;;;;;18.74;38.48;100953.31;5014444;28;20096;-71
2022/12/11 09:19:31;;;;;;;7.57;3.08;;;;;;;18.77;38.24;100958.34;5016291;28;20079;-70
2022/12/11 09:21:56;;;;;;;6.63;3.17;;;;;;;18.75;38.51;100954.97;5013820;28;20037;-68
2022/12/11 09:24:22;;;;;;;6.07;2.72;;;;;;;18.69;38.21;100950.19;5014961;28;20072;-69
2022/12/11 09:26:47;;;;;;;5.65;2.83;;;;;;;18.76;39.13;100961.94;5012870;28;20687;-69
2022/12/11 09:29:12;;;;;;;6.63;3.08;;;;;;;18.83;38.83;100962.28;5014628;28;20037;-69
2022/12/11 09:31:38;;;;;;;7.40;3.00;;;;;;;18.83;38.85;100959.63;5013689;28;20462;-69
2022/12/11 09:34:07;;;;;;;8.07;3.10;;;;;;;18.83;38.87;100962.28;5014271;28;20048;-73
2022/12/11 09:36:33;;;;;;;6.70;2.65;;;;;;;18.90;38.97;100962.63;5013521;28;20050;-70
2022/12/11 09:39:01;;;;;;;7.63;2.75;;;;;;;18.89;38.79;100953.88;5014348;28;20477;-68
2022/12/11 09:41:44;;;;;;;7.32;3.10;;;;;;;18.92;38.67;100956.28;5012743;28;20044;-71
2022/12/11 09:44:09;;;;;;;7.75;3.65;;;;;;;18.90;38.01;100946.78;4994833;28;20465;-67
2022/12/11 09:46:36;;;;;;;9.50;3.47;;;;;;;18.97;38.63;100958.53;5012835;28;20114;-69
2022/12/11 09:49:03;;;;;;;6.80;3.20;;;;;;;18.99;38.66;100946.03;5012905;28;20033;-66
2022/12/11 09:51:31;;;;;;;5.85;3.08;;;;;;;19.01;38.56;100950.22;5013289;28;20064;-70
2022/12/11 09:54:00;;;;;;;6.50;3.10;;;;;;;19.02;38.63;100945.78;5013735;28;20037;-68
2022/12/11 09:57:05;;;;;;;6.47;2.95;;;;;;;19.06;38.76;100944.56;5012128;28;20033;-68
2022/12/11 09:59:47;;;;;;;9.30;2.97;;;;;;;19.08;38.83;100942.63;4963979;28;20037;-69
2022/12/11 10:02:37;;;;;;;9.32;3.20;;;;;;;19.11;38.85;100950.28;5012853;28;20122;-68
2022/12/11 10:05:23;;;;;;;8.02;2.95;;;;;;;19.11;38.80;100944.19;5012609;28;20037;-69
2022/12/11 10:07:59;;;;;;;9.65;2.60;;;;;;;19.10;38.63;100940.69;5012786;28;20041;-71
2022/12/11 10:10:40;;;;;;;8.20;3.00;;;;;;;19.12;38.63;100948.47;5013254;28;20033;-69
2022/12/11 10:13:12;;;;;;;7.63;3.53;;;;;;;19.14;38.56;100938.66;5015017;28;20034;-70
2022/12/11 10:16:02;;;;;;;10.48;3.35;;;;;;;19.16;38.72;100942.00;5014149;28;20036;-72
2022/12/11 10:18:29;;;;;;;12.02;3.08;;;;;;;19.18;38.89;100943.53;5016282;28;20048;-69
2022/12/11 10:20:55;;;;;;;7.07;2.97;;;;;;;19.17;38.78;100939.22;5017311;28;20040;-67
2022/12/11 10:23:28;;;;;;;6.25;3.05;;;;;;;19.19;38.91;100936.44;5015918;28;20033;-65
2022/12/11 10:26:01;;;;;;;11.20;3.25;;;;;;;19.18;38.84;100937.41;5017093;28;20052;-66
2022/12/11 10:28:27;;;;;;;6.63;3.10;;;;;;;19.16;38.99;100944.63;5017581;28;20028;-67
2022/12/11 10:31:44;;;;;;;6.80;3.72;;;;;;;19.24;38.85;100944.81;5015777;28;20033;-69
2022/12/11 10:34:29;;;;;;;6.80;3.05;;;;;;;19.23;38.77;100937.03;4998892;28;20057;-67
2022/12/11 10:36:55;;;;;;;8.27;3.33;;;;;;;19.25;38.57;100938.56;5016147;28;21067;-69
2022/12/11 10:39:21;;;;;;;6.82;2.60;;;;;;;19.25;38.72;100929.78;5016502;28;20033;-71
2022/12/11 10:41:50;;;;;;;9.02;2.95;;;;;;;19.26;38.41;100932.31;5016563;28;20041;-68
2022/12/11 10:44:25;;;;;;;7.47;3.28;;;;;;;19.24;38.81;100930.78;5016435;28;20377;-69
2022/12/11 10:46:59;;;;;;;6.60;2.85;;;;;;;19.26;38.73;100934.13;5016945;28;20025;-68
2022/12/11 10:49:27;;;;;;;;;;;;;;;19.33;38.70;100930.00;5018431;28;20596;-68
2022/12/11 10:51:54;;;;;;;8.50;3.25;;;;;;;19.24;38.66;100921.03;5016242;28;19919;-68
2022/12/11 10:54:39;;;;;;;7.00;2.97;;;;;;;19.27;38.54;100922.59;5015036;28;20054;-69
2022/12/11 10:57:07;;;;;;;7.00;3.10;;;;;;;19.30;38.70;100915.22;5015944;28;20034;-67
2022/12/11 10:59:48;;;;;;;5.40;2.85;;;;;;;19.26;38.72;100918.25;5016882;28;20029;-68
2022/12/11 11:02:27;;;;;;;7.22;3.08;;;;;;;19.25;38.91;100919.22;5015825;28;20555;-68
2022/12/11 11:04:55;;;;;;;9.50;3.75;;;;;;;19.26;38.81;100919.09;5016530;28;20044;-68
2022/12/11 11:07:23;;;;;;;5.45;2.65;;;;;;;19.21;38.61;100908.91;5014681;28;20048;-64
2022/12/11 11:10:01;;;;;;;7.60;3.38;;;;;;;19.24;38.60;100907.00;5016377;28;20033;-67
2022/12/11 11:12:27;;;;;;;8.25;3.28;;;;;;;19.28;38.70;100903.97;5017258;28;20561;-69
2022/12/11 11:15:06;;;;;;;7.70;3.33;;;;;;;19.25;38.57;100900.72;5015630;28;20037;-66
2022/12/11 11:17:40;;;;;;;6.22;3.42;;;;;;;19.26;38.63;100900.59;5015881;28;20060;-65
2022/12/11 11:20:13;;;;;;;7.15;3.08;;;;;;;19.23;38.73;100903.50;5015813;28;20034;-65
2022/12/11 11:22:48;;;;;;;8.93;3.83;;;;;;;19.21;38.46;100900.16;5014988;28;20736;-65
2022/12/11 11:25:18;;;;;;;5.95;2.83;;;;;;;19.23;38.49;100902.66;5016401;28;20170;-67
2022/12/11 11:28:07;;;;;;;8.05;3.45;;;;;;;19.19;38.70;100908.22;5013332;28;20037;-66
2022/12/11 11:30:37;;;;;;;7.45;3.08;;;;;;;19.10;38.51;100890.50;5015731;28;20049;-69
2022/12/11 11:33:14;;;;;;;9.95;4.25;;;;;;;19.14;38.16;100902.50;5016557;28;20032;-66
2022/12/11 11:35:53;;;;;;;9.48;3.50;;;;;;;19.15;38.48;100900.69;5015353;28;20061;-70
2022/12/11 11:38:26;;;;;;;9.60;4.00;;;;;;;19.18;38.42;100900.41;5015189;28;20022;-69
2022/12/11 11:41:16;;;;;;;7.05;3.30;;;;;;;19.18;38.85;100895.13;5014543;28;20345;-66
2022/12/11 11:43:43;;;;;;;9.00;3.30;;;;;;;19.17;38.36;100901.41;5014077;28;20093;-71